Time;durP1;ratioP1;P1;durP2;ratioP2;P2;SDS_P1;SDS_P2;PMS_P1;PMS_P2;Temp;Humidity;BMP_temperature;BMP_pressure;BME280_temperature;BME280_humidity;BME280_pressure;Samples;Min_cycle;Max_cycle;Signal;HPM_P1;HPM_P2
2022/05/26 00:00:08;;;;;;;2.63;1.60;;;;;;;11.29;100.00;96769.91;5030004;28;105620;-61
2022/05/26 00:02:35;;;;;;;3.53;1.83;;;;;;;11.29;100.00;96773.38;5027497;28;103883;-61
2022/05/26 00:05:02;;;;;;;2.33;1.53;;;;;;;11.30;100.00;96772.34;5027025;28;104126;-61
2022/05/26 00:07:29;;;;;;;1.70;1.60;;;;;;;11.18;100.00;96770.81;5029236;28;101891;-61
2022/05/26 00:09:57;;;;;;;1.70;1.60;;;;;;;11.07;100.00;96772.50;5032738;28;102308;-61
2022/05/26 00:12:25;;;;;;;2.43;1.50;;;;;;;11.10;100.00;96772.03;5030512;28;104979;-61
2022/05/26 00:14:52;;;;;;;1.67;1.57;;;;;;;11.10;100.00;96769.38;5031052;28;101955;-61
2022/05/26 00:17:18;;;;;;;1.63;1.53;;;;;;;10.96;100.00;96773.41;5031197;28;104850;-61
2022/05/26 00:19:45;;;;;;;1.47;1.37;;;;;;;10.78;100.00;96773.66;5030329;28;105276;-61
2022/05/26 00:22:12;;;;;;;1.90;1.40;;;;;;;10.82;100.00;96777.47;5034325;28;101962;-61
2022/05/26 00:24:41;;;;;;;1.80;1.70;;;;;;;10.86;100.00;96769.81;5030372;28;105550;-61
2022/05/26 00:27:10;;;;;;;1.77;1.67;;;;;;;10.79;100.00;96769.16;5032514;27;102114;-61
2022/05/26 00:29:37;;;;;;;1.50;1.40;;;;;;;10.86;100.00;96764.47;5032466;28;102517;-61
2022/05/26 00:32:05;;;;;;;1.90;1.67;;;;;;;10.85;100.00;96776.97;5029968;28;105022;-61
2022/05/26 00:34:32;;;;;;;4.77;1.90;;;;;;;10.77;100.00;96777.38;5032185;27;101868;-61
2022/05/26 00:36:59;;;;;;;3.30;1.90;;;;;;;10.78;100.00;96778.16;5032322;28;102550;-61
2022/05/26 00:39:27;;;;;;;1.83;1.73;;;;;;;10.66;100.00;96772.13;5031580;28;102717;-61
2022/05/26 00:41:58;;;;;;;1.67;1.57;;;;;;;10.68;100.00;96776.16;5031823;28;101870;-61
2022/05/26 00:44:27;;;;;;;2.30;1.70;;;;;;;10.50;100.00;96775.56;5035112;27;102282;-61
2022/05/26 00:46:57;;;;;;;1.63;1.53;;;;;;;10.65;100.00;96775.84;5030676;28;101900;-61
2022/05/26 00:49:32;;;;;;;1.70;1.60;;;;;;;10.61;100.00;96772.03;5030645;28;103983;-61
2022/05/26 00:51:59;;;;;;;1.60;1.50;;;;;;;10.54;100.00;96776.72;5029754;28;104978;-61
2022/05/26 00:54:27;;;;;;;1.60;1.50;;;;;;;10.49;100.00;96777.44;5030555;28;102017;-61
2022/05/26 00:56:59;;;;;;;2.57;1.90;;;;;;;10.50;100.00;96778.22;5030553;28;104826;-61
2022/05/26 00:59:37;;;;;;;2.50;1.70;;;;;;;10.50;100.00;96775.56;5029703;28;104082;-61
2022/05/26 01:02:05;;;;;;;2.50;1.60;;;;;;;10.54;100.00;96779.38;5031485;28;101828;-61
2022/05/26 01:04:41;;;;;;;2.97;1.70;;;;;;;10.54;100.00;96782.03;5031767;28;102420;-61
2022/05/26 01:07:15;;;;;;;2.10;1.70;;;;;;;10.49;100.00;96781.94;5034539;27;102739;-61
2022/05/26 01:09:42;;;;;;;1.90;1.60;;;;;;;10.50;100.00;96781.72;5031879;27;102834;-61
2022/05/26 01:12:09;;;;;;;1.53;1.30;;;;;;;10.50;100.00;96780.91;5031128;28;102816;-61
2022/05/26 01:14:41;;;;;;;1.90;1.50;;;;;;;10.39;100.00;96785.25;5031631;27;102076;-61
2022/05/26 01:17:17;;;;;;;1.60;1.50;;;;;;;10.36;100.00;96784.91;5031591;27;102434;-61
2022/05/26 01:20:25;;;;;;;1.70;1.60;;;;;;;10.40;100.00;96783.38;5029619;28;103926;-61
2022/05/26 01:23:46;;;;;;;1.40;1.30;;;;;;;10.31;100.00;96780.31;5031102;27;101996;-61
2022/05/26 01:26:52;;;;;;;5.40;1.70;;;;;;;10.13;100.00;96785.00;5023453;27;102656;-61
2022/05/26 01:29:54;;;;;;;1.43;1.40;;;;;;;10.30;100.00;96793.84;5030807;28;102972;-61
2022/05/26 01:32:28;;;;;;;1.70;1.60;;;;;;;10.14;100.00;96810.56;5027635;27;101956;-61
2022/05/26 01:35:03;;;;;;;2.10;1.80;;;;;;;10.28;100.00;96838.44;5063198;27;105235;-61
2022/05/26 01:37:41;;;;;;;2.20;2.10;;;;;;;10.60;100.00;96839.56;5029751;28;101951;-61
2022/05/26 01:40:19;;;;;;;3.17;2.47;;;;;;;10.85;100.00;96832.03;5029873;28;104830;-61
2022/05/26 01:42:54;;;;;;;3.00;2.50;;;;;;;10.94;100.00;96847.38;5030599;28;102825;-61
2022/05/26 01:45:41;;;;;;;2.10;2.00;;;;;;;10.93;100.00;96847.59;5031065;28;101769;-61
2022/05/26 01:48:15;;;;;;;2.40;2.20;;;;;;;10.95;100.00;96848.97;5031289;28;102557;-61
2022/05/26 01:50:46;;;;;;;2.47;2.27;;;;;;;11.07;100.00;96835.59;5030286;27;105291;-61
2022/05/26 01:53:25;;;;;;;2.83;2.13;;;;;;;11.14;100.00;96847.69;5029579;28;101813;-61
2022/05/26 01:55:59;;;;;;;2.63;1.80;;;;;;;11.27;100.00;96826.06;5033822;28;102968;-62
2022/05/26 01:58:34;;;;;;;1.87;1.77;;;;;;;11.29;100.00;96826.63;5031264;27;101714;-61
2022/05/26 02:01:04;;;;;;;2.40;2.00;;;;;;;11.36;100.00;96824.59;5030812;27;102368;-61
2022/05/26 02:03:34;;;;;;;2.23;2.13;;;;;;;11.42;100.00;96828.13;5030139;27;102515;-61
2022/05/26 02:06:09;;;;;;;2.10;1.77;;;;;;;11.45;100.00;96825.00;5029137;28;101849;-61
2022/05/26 02:08:41;;;;;;;2.40;1.57;;;;;;;11.46;100.00;96831.94;5029295;28;105360;-61
2022/05/26 02:11:14;;;;;;;2.10;1.73;;;;;;;11.44;100.00;96832.16;5028853;28;105413;-61
2022/05/26 02:13:43;;;;;;;1.70;1.60;;;;;;;11.52;100.00;96830.94;5030724;27;101878;-61
2022/05/26 02:16:17;;;;;;;1.80;1.60;;;;;;;11.58;100.00;96833.44;5033931;28;102641;-61
2022/05/26 02:18:53;;;;;;;2.20;1.53;;;;;;;11.58;100.00;96832.63;5030577;27;101793;-61
2022/05/26 02:21:25;;;;;;;1.50;1.40;;;;;;;11.60;100.00;96831.38;5030816;28;102372;-61
2022/05/26 02:24:00;;;;;;;1.93;1.60;;;;;;;11.60;100.00;96834.03;5029925;28;103263;-61
2022/05/26 02:26:28;;;;;;;4.00;1.53;;;;;;;11.59;100.00;96831.59;5029206;28;101907;-61
2022/05/26 02:31:43;;;;;;;1.87;1.27;;;;;;;11.56;100.00;96826.75;5029833;27;103109;-61
2022/05/26 02:34:13;;;;;;;2.00;1.80;;;;;;;11.54;100.00;96819.00;5030244;27;101879;-61
2022/05/26 02:36:42;;;;;;;2.80;2.03;;;;;;;11.60;100.00;96826.03;5030324;28;102467;-61
2022/05/26 02:39:10;;;;;;;2.67;1.60;;;;;;;11.65;100.00;96834.09;5031765;28;104325;-61
2022/05/26 02:41:39;;;;;;;1.97;1.50;;;;;;;11.76;100.00;96835.03;5030113;28;102275;-61
2022/05/26 02:44:07;;;;;;;1.67;1.43;;;;;;;11.82;100.00;96828.75;5028077;28;103985;-61
2022/05/26 02:46:48;;;;;;;1.60;1.50;;;;;;;11.78;100.00;96840.94;5028770;28;101810;-61
2022/05/26 02:49:31;;;;;;;1.30;1.30;;;;;;;11.79;100.00;96843.34;5030326;28;102401;-61
2022/05/26 02:52:05;;;;;;;2.00;1.50;;;;;;;11.77;100.00;96842.00;5028069;28;103847;-61
2022/05/26 02:54:42;;;;;;;1.50;1.40;;;;;;;11.80;100.00;96838.81;5028771;28;102126;-61
2022/05/26 02:57:16;;;;;;;1.37;1.37;;;;;;;11.74;100.00;96842.47;5028918;28;104050;-61
2022/05/26 02:59:59;;;;;;;1.50;1.40;;;;;;;11.72;100.00;96840.03;5028106;28;105439;-61
2022/05/26 03:02:35;;;;;;;1.30;1.30;;;;;;;11.73;100.00;96840.88;5032115;28;101805;-61
2022/05/26 03:05:10;;;;;;;2.27;1.67;;;;;;;11.72;100.00;96840.03;5027330;28;105299;-61
2022/05/26 03:07:41;;;;;;;1.53;1.30;;;;;;;11.66;100.00;96830.38;5062749;27;101838;-61
2022/05/26 03:10:10;;;;;;;1.93;1.43;;;;;;;11.65;100.00;96841.28;5030159;28;102265;-61
2022/05/26 03:12:37;;;;;;;3.93;1.50;;;;;;;11.58;100.00;96845.94;5029032;28;102710;-61
2022/05/26 03:15:07;;;;;;;2.20;1.33;;;;;;;11.59;100.00;96843.06;5029393;27;101959;-61
2022/05/26 03:17:34;;;;;;;1.87;1.50;;;;;;;11.61;100.00;96832.19;5030083;27;102337;-61
2022/05/26 03:20:02;;;;;;;1.60;1.50;;;;;;;11.57;100.00;96841.69;5029317;28;102709;-61
2022/05/26 03:22:30;;;;;;;1.67;1.37;;;;;;;11.57;100.00;96836.34;5028403;28;101899;-61
2022/05/26 03:24:57;;;;;;;1.47;1.37;;;;;;;11.59;100.00;96839.59;5032451;28;102981;-61
2022/05/26 03:27:25;;;;;;;1.60;1.50;;;;;;;11.59;100.00;96844.91;5029810;28;101880;-61
2022/05/26 03:29:51;;;;;;;1.30;1.30;;;;;;;11.58;100.00;96848.59;5028365;28;103597;-61
2022/05/26 03:32:19;;;;;;;2.73;1.50;;;;;;;11.54;100.00;96845.63;5027526;28;106128;-61
2022/05/26 03:43:04;;;;;;;1.97;1.83;;;;;;;11.58;100.00;96853.94;5013998;27;102013;-61
2022/05/26 03:45:33;;;;;;;2.63;2.43;;;;;;;11.57;100.00;96858.47;5033057;27;102274;-61
2022/05/26 03:48:00;;;;;;;2.40;2.30;;;;;;;11.58;100.00;96865.41;5035821;28;103181;-61
2022/05/26 03:50:28;;;;;;;2.17;2.03;;;;;;;11.63;100.00;96859.38;5032866;28;103020;-61
2022/05/26 03:52:56;;;;;;;2.77;2.17;;;;;;;11.62;100.00;96866.53;5032328;27;103402;-61
2022/05/26 03:55:25;;;;;;;2.00;1.77;;;;;;;11.65;100.00;96871.41;5032865;28;101919;-61
2022/05/26 03:57:52;;;;;;;1.80;1.70;;;;;;;11.68;100.00;96870.91;5031358;28;104949;-61
2022/05/26 04:00:22;;;;;;;2.40;1.80;;;;;;;11.73;100.00;96873.63;5030160;28;105379;-61
2022/05/26 04:02:50;;;;;;;1.60;1.50;;;;;;;11.77;100.00;96884.63;5031334;28;101843;-61
2022/05/26 04:05:18;;;;;;;1.60;1.50;;;;;;;11.73;100.00;96888.81;5030938;28;105855;-61
2022/05/26 04:07:46;;;;;;;1.77;1.63;;;;;;;11.76;100.00;96889.13;5030773;28;103797;-61
2022/05/26 04:10:15;;;;;;;3.07;1.57;;;;;;;11.77;100.00;96890.75;5034729;28;101901;-61
2022/05/26 04:12:43;;;;;;;3.50;1.80;;;;;;;11.77;100.00;96890.75;5030169;28;104978;-61
2022/05/26 04:15:12;;;;;;;2.57;1.80;;;;;;;11.83;100.00;96894.31;5032471;27;102125;-61
2022/05/26 04:17:39;;;;;;;1.73;1.47;;;;;;;11.87;100.00;96893.56;5031091;28;105216;-61
2022/05/26 04:20:08;;;;;;;3.57;1.80;;;;;;;11.95;100.00;96900.31;5030491;28;105907;-61
2022/05/26 04:22:36;;;;;;;3.50;1.63;;;;;;;12.03;100.00;96895.38;5030958;28;101943;-61
2022/05/26 04:25:03;;;;;;;1.90;1.80;;;;;;;12.10;100.00;96893.31;5030969;28;104037;-61
2022/05/26 04:27:34;;;;;;;1.43;1.40;;;;;;;12.01;100.00;96894.81;5030471;28;105741;-61
2022/05/26 04:30:03;;;;;;;2.40;1.13;;;;;;;12.06;100.00;96896.75;5034277;28;101803;-61
2022/05/26 04:32:30;;;;;;;1.60;1.50;;;;;;;12.11;100.00;96902.13;5030307;28;105111;-61
2022/05/26 04:34:57;;;;;;;2.40;2.00;;;;;;;12.32;100.00;96893.34;5030631;28;101887;-61
2022/05/26 04:37:26;;;;;;;1.73;1.63;;;;;;;12.38;100.00;96893.13;5030833;28;104877;-61
2022/05/26 04:39:55;;;;;;;1.70;1.60;;;;;;;12.46;100.00;96895.38;5030244;28;103812;-61
2022/05/26 04:42:22;;;;;;;2.57;1.50;;;;;;;12.54;100.00;96897.59;5032016;27;101856;-61
2022/05/26 04:44:51;;;;;;;1.73;1.63;;;;;;;12.61;100.00;96900.88;5030598;28;103696;-61
2022/05/26 04:47:18;;;;;;;1.87;1.77;;;;;;;12.64;100.00;96903.03;5030029;28;103778;-61
2022/05/26 04:49:46;;;;;;;3.53;1.60;;;;;;;12.68;100.00;96906.00;5030708;28;102243;-61
2022/05/26 04:52:15;;;;;;;1.47;1.37;;;;;;;12.76;100.00;96910.91;5034399;27;102876;-61
2022/05/26 04:54:44;;;;;;;1.70;1.60;;;;;;;12.79;100.00;96907.72;5031918;28;101846;-61
2022/05/26 04:57:11;;;;;;;2.40;1.40;;;;;;;12.87;100.00;96909.97;5030461;28;104899;-61
2022/05/26 04:59:40;;;;;;;1.80;1.70;;;;;;;13.00;100.00;96922.94;5029858;28;105529;-61
2022/05/26 05:02:12;;;;;;;2.20;1.53;;;;;;;13.17;100.00;96912.94;5030073;28;102045;-61
2022/05/26 05:04:40;;;;;;;2.57;1.80;;;;;;;13.08;100.00;96915.25;5030165;28;103906;-61
2022/05/26 05:07:08;;;;;;;2.70;1.57;;;;;;;13.01;100.00;96924.53;5029736;28;104625;-61
2022/05/26 05:09:35;;;;;;;2.13;1.73;;;;;;;13.03;100.00;96922.44;5030482;28;101869;-61
2022/05/26 05:12:02;;;;;;;1.77;1.67;;;;;;;13.02;100.00;96928.84;5030158;28;103765;-61
2022/05/26 05:14:32;;;;;;;2.17;1.60;;;;;;;13.09;100.00;96924.09;5032717;28;104124;-60
2022/05/26 05:16:59;;;;;;;1.73;1.63;;;;;;;13.17;100.00;96928.97;5030272;28;104943;-61
2022/05/26 05:19:27;;;;;;;1.80;1.70;;;;;;;13.38;100.00;96938.78;5029576;28;105971;-59
2022/05/26 05:21:59;;;;;;;1.70;1.60;;;;;;;13.61;100.00;96941.09;5030097;28;101893;-60
2022/05/26 05:24:31;;;;;;;1.60;1.50;;;;;;;13.48;100.00;96941.53;5030028;28;105730;-61
2022/05/26 05:27:01;;;;;;;3.27;2.00;;;;;;;13.65;100.00;96950.22;5029315;28;105818;-61
2022/05/26 05:29:33;;;;;;;1.73;1.47;;;;;;;13.58;100.00;96952.31;5029982;28;102387;-61
2022/05/26 05:32:05;;;;;;;2.13;1.70;;;;;;;13.62;100.00;96958.75;5030110;28;103856;-61
2022/05/26 05:34:39;;;;;;;1.80;1.70;;;;;;;13.70;100.00;96960.94;5029369;28;105670;-61
2022/05/26 05:37:06;;;;;;;3.67;1.87;;;;;;;14.00;100.00;96961.97;5033036;28;101827;-61
2022/05/26 05:39:34;;;;;;;1.80;1.70;;;;;;;14.04;100.00;96970.28;5028997;28;104114;-61
2022/05/26 05:42:02;;;;;;;1.50;1.40;;;;;;;14.27;100.00;96964.56;5029713;28;101861;-61
2022/05/26 05:44:30;;;;;;;2.33;1.60;;;;;;;14.10;100.00;96966.56;5029588;28;103906;-61
2022/05/26 05:46:58;;;;;;;2.43;1.80;;;;;;;14.28;100.00;96974.22;5029206;28;105834;-61
2022/05/26 05:49:27;;;;;;;2.10;1.80;;;;;;;14.62;100.00;96967.44;5029261;28;101913;-61
2022/05/26 05:51:57;;;;;;;2.30;1.60;;;;;;;14.86;100.00;96976.59;5029356;28;105637;-61
2022/05/26 05:54:25;;;;;;;1.77;1.67;;;;;;;15.06;100.00;96972.13;5028405;28;105994;-61
2022/05/26 05:56:51;;;;;;;1.80;1.60;;;;;;;15.20;100.00;96978.59;5029661;28;102171;-61
2022/05/26 05:59:18;;;;;;;1.40;1.37;;;;;;;15.08;100.00;96982.56;5032403;28;105262;-61
2022/05/26 06:01:45;;;;;;;1.83;1.67;;;;;;;15.31;100.00;96982.91;5028842;28;101970;-61
2022/05/26 06:04:11;;;;;;;1.50;1.40;;;;;;;15.48;100.00;96985.38;5028202;27;105172;-61
2022/05/26 06:06:40;;;;;;;1.90;1.37;;;;;;;15.51;100.00;96979.47;5028466;28;105348;-61
2022/05/26 06:09:13;;;;;;;1.60;1.50;;;;;;;15.50;100.00;96977.88;5029403;28;102035;-61
2022/05/26 06:11:40;;;;;;;1.40;1.40;;;;;;;15.40;100.00;96975.97;5028987;28;104861;-61
2022/05/26 06:14:09;;;;;;;1.73;1.50;;;;;;;15.69;100.00;96979.75;5030044;27;103141;-61
2022/05/26 06:16:36;;;;;;;2.33;1.30;;;;;;;15.83;100.00;96969.28;5029402;28;101805;-61
2022/05/26 06:19:03;;;;;;;1.50;1.40;;;;;;;15.87;100.00;96971.16;5029243;28;105081;-61
2022/05/26 06:21:31;;;;;;;2.13;1.57;;;;;;;15.98;100.00;96971.97;5011589;28;101988;-61
2022/05/26 06:23:58;;;;;;;2.57;1.30;;;;;;;16.04;100.00;96966.34;5009078;28;105696;-62
2022/05/26 06:26:28;;;;;;;1.57;1.37;;;;;;;16.18;100.00;96983.47;5019345;28;103985;-61
2022/05/26 06:31:39;;;;;;;1.77;1.60;;;;;;;16.33;100.00;96988.00;5028860;28;105141;-61
2022/05/26 06:39:35;;;;;;;1.53;1.30;;;;;;;16.71;100.00;96990.06;5028814;28;103949;-61
2022/05/26 06:42:07;;;;;;;2.43;1.20;;;;;;;17.12;100.00;97003.06;5031576;28;105225;-62
2022/05/26 06:44:36;;;;;;;1.30;1.20;;;;;;;17.44;100.00;96999.97;5029565;28;104985;-62
2022/05/26 06:47:04;;;;;;;1.93;1.40;;;;;;;17.58;100.00;97000.94;5028404;28;104050;-61
2022/05/26 06:49:33;;;;;;;0.90;0.90;;;;;;;17.41;100.00;96997.84;5030027;27;101928;-60
2022/05/26 06:52:00;;;;;;;1.13;0.90;;;;;;;17.32;100.00;97007.53;5029535;28;102404;-60
2022/05/26 06:54:31;;;;;;;1.00;1.00;;;;;;;17.65;100.00;97006.84;5028706;28;102707;-60
2022/05/26 06:56:58;;;;;;;1.10;1.10;;;;;;;17.88;100.00;97006.91;5008580;28;102223;-60
2022/05/26 06:59:27;;;;;;;1.50;1.10;;;;;;;17.82;100.00;97004.56;5008630;28;105068;-61
2022/05/26 07:01:53;;;;;;;1.23;1.10;;;;;;;17.73;100.00;97017.00;5007503;28;105795;-59
2022/05/26 07:04:20;;;;;;;3.27;1.27;;;;;;;17.46;100.00;97013.94;5013232;28;101821;-59
2022/05/26 07:06:50;;;;;;;1.90;1.10;;;;;;;17.75;100.00;97001.34;5007345;28;103805;-60
2022/05/26 07:09:18;;;;;;;1.10;1.10;;;;;;;17.79;100.00;97002.41;5008187;28;101933;-60
2022/05/26 07:11:45;;;;;;;1.30;1.20;;;;;;;17.85;100.00;97006.66;5008176;28;105105;-61
2022/05/26 07:14:12;;;;;;;2.30;1.50;;;;;;;18.07;100.00;97004.31;5007585;28;105766;-60
2022/05/26 07:16:40;;;;;;;1.20;1.10;;;;;;;18.51;100.00;97002.31;5010292;28;101818;-59
2022/05/26 07:19:07;;;;;;;2.67;1.27;;;;;;;18.72;100.00;97001.84;5028224;28;104846;-59
2022/05/26 07:21:35;;;;;;;1.50;1.17;;;;;;;18.90;100.00;97002.94;5031393;28;105104;-59
2022/05/26 07:24:02;;;;;;;1.67;1.30;;;;;;;18.67;100.00;96993.00;5031706;28;102132;-60
2022/05/26 07:26:32;;;;;;;3.43;1.30;;;;;;;18.84;100.00;96998.72;5034802;28;103949;-61
2022/05/26 07:28:59;;;;;;;2.83;1.00;;;;;;;18.77;100.00;96992.88;5032046;28;102389;-61
2022/05/26 07:31:27;;;;;;;2.10;1.20;;;;;;;18.73;100.00;96992.66;5031763;28;103541;-60
2022/05/26 07:33:56;;;;;;;1.70;1.30;;;;;;;19.07;100.00;96987.91;5031251;28;105593;-61
2022/05/26 07:41:58;;;;;;;1.27;1.10;;;;;;;18.54;100.00;96988.28;5031058;28;105886;-62
2022/05/26 07:44:27;;;;;;;1.10;1.10;;;;;;;18.62;100.00;97001.13;5031715;28;101855;-62
2022/05/26 07:46:54;;;;;;;0.83;0.83;;;;;;;18.80;100.00;96995.00;5031389;28;105058;-61
2022/05/26 07:49:22;;;;;;;1.10;1.00;;;;;;;18.66;100.00;96994.09;5034178;28;104063;-62
2022/05/26 07:51:50;;;;;;;3.83;1.40;;;;;;;18.78;100.00;97002.56;5032903;28;102636;-62
2022/05/26 07:54:16;;;;;;;1.73;1.10;;;;;;;19.07;100.00;96987.13;5013724;28;106625;-62
2022/05/26 07:56:43;;;;;;;2.90;1.10;;;;;;;19.55;100.00;96988.63;5031308;28;101789;-62
2022/05/26 07:59:10;;;;;;;1.60;1.00;;;;;;;19.70;100.00;96988.41;5031432;28;105328;-62
2022/05/26 08:01:37;;;;;;;1.43;1.10;;;;;;;19.51;100.00;97003.81;5030424;28;106030;-62
2022/05/26 08:04:07;;;;;;;1.20;1.10;;;;;;;19.64;100.00;96993.09;5031010;28;102213;-62
2022/05/26 08:06:36;;;;;;;2.80;1.10;;;;;;;19.54;100.00;96995.13;5031158;28;105667;-62
2022/05/26 08:09:03;;;;;;;1.53;1.00;;;;;;;19.75;100.00;96996.44;5031785;27;103079;-62
2022/05/26 08:11:30;;;;;;;1.00;0.90;;;;;;;19.66;100.00;96990.06;5036099;28;101824;-62
2022/05/26 08:13:57;;;;;;;1.47;0.80;;;;;;;19.90;100.00;96985.41;5030330;28;104917;-62
2022/05/26 08:16:24;;;;;;;0.87;0.87;;;;;;;19.49;100.00;96989.81;5031063;28;101874;-62
2022/05/26 08:18:51;;;;;;;0.97;0.90;;;;;;;19.66;100.00;96979.28;5030973;28;105564;-62
2022/05/26 08:21:18;;;;;;;1.60;0.90;;;;;;;20.45;100.00;96979.06;5030541;28;105428;-62
2022/05/26 08:23:47;;;;;;;1.20;1.00;;;;;;;20.21;100.00;96986.53;5030976;28;101781;-62
2022/05/26 08:26:17;;;;;;;1.20;1.10;;;;;;;20.23;100.00;96985.16;5030789;28;104783;-62
2022/05/26 08:28:43;;;;;;;1.63;1.27;;;;;;;20.24;100.00;96991.31;5028960;27;105479;-62
2022/05/26 08:31:13;;;;;;;0.90;0.90;;;;;;;20.59;100.00;96971.78;5034455;28;101844;-62
2022/05/26 08:33:40;;;;;;;0.67;0.67;;;;;;;20.71;100.00;96980.19;5030275;28;105289;-62
2022/05/26 08:36:10;;;;;;;0.80;0.80;;;;;;;20.38;100.00;96976.75;5030532;28;101839;-62
2022/05/26 08:38:38;;;;;;;1.70;1.07;;;;;;;19.77;100.00;96975.34;5030781;28;104451;-62
2022/05/26 08:41:11;;;;;;;1.10;0.97;;;;;;;19.62;100.00;96989.88;5053877;27;104226;-62
2022/05/26 08:43:41;;;;;;;1.53;0.90;;;;;;;20.00;100.00;96985.25;5010714;28;102176;-62
2022/05/26 08:46:12;;;;;;;1.50;0.80;;;;;;;20.48;100.00;96983.88;5010291;28;103610;-62
2022/05/26 08:48:48;;;;;;;1.23;1.00;;;;;;;20.16;100.00;96984.69;5043616;27;104318;-62
2022/05/26 08:51:23;;;;;;;0.97;0.80;;;;;;;20.62;98.21;96987.38;5010493;28;101886;-62
2022/05/26 08:53:53;;;;;;;1.47;0.80;;;;;;;20.76;96.63;96982.81;5013342;28;105074;-62
2022/05/26 08:56:26;;;;;;;1.50;1.10;;;;;;;20.26;99.72;96986.41;5010348;28;101987;-62
2022/05/26 08:58:58;;;;;;;2.60;0.93;;;;;;;20.51;95.78;96985.97;5044073;27;105619;-62
2022/05/26 09:01:28;;;;;;;13.03;1.67;;;;;;;20.69;100.00;96985.09;5010535;28;103233;-62
2022/05/26 09:03:55;;;;;;;0.80;0.80;;;;;;;20.77;96.75;96990.59;5010164;28;102026;-62
2022/05/26 09:06:23;;;;;;;2.87;1.10;;;;;;;21.26;99.97;96984.50;5015278;28;102381;-62
2022/05/26 09:14:27;;;;;;;2.53;0.80;;;;;;;20.98;87.48;96988.34;5031559;27;102267;-62
2022/05/26 09:16:59;;;;;;;1.67;0.80;;;;;;;21.27;88.84;96989.59;5034441;27;102602;-62
2022/05/26 09:19:32;;;;;;;1.33;0.77;;;;;;;20.78;91.46;96996.81;5031743;28;102897;-62
2022/05/26 09:21:59;;;;;;;2.20;0.80;;;;;;;20.31;90.00;96994.44;5030867;28;102617;-62
2022/05/26 09:24:34;;;;;;;1.73;0.97;;;;;;;20.00;90.58;96990.63;5029857;28;101897;-62
2022/05/26 09:27:05;;;;;;;0.80;0.60;;;;;;;20.57;94.23;96982.88;5029642;28;104085;-62
2022/05/26 09:29:34;;;;;;;0.87;0.83;;;;;;;21.20;83.97;96991.13;5030990;28;103118;-62
2022/05/26 09:32:03;;;;;;;0.90;0.70;;;;;;;21.05;88.77;96983.31;5031208;28;101847;-62
2022/05/26 09:34:33;;;;;;;1.00;0.73;;;;;;;21.54;77.78;96994.16;5029558;28;104832;-62
2022/05/26 09:37:02;;;;;;;1.40;0.77;;;;;;;22.21;72.15;96983.06;5030748;28;103154;-62
2022/05/26 09:39:34;;;;;;;1.33;0.60;;;;;;;21.68;73.59;96989.53;5032811;27;102018;-62
2022/05/26 09:42:05;;;;;;;1.20;0.77;;;;;;;21.13;78.76;96980.69;5029103;28;105086;-62
2022/05/26 09:44:51;;;;;;;2.20;0.70;;;;;;;20.64;89.14;96980.59;5029815;28;102118;-62
2022/05/26 09:47:27;;;;;;;1.23;0.80;;;;;;;20.83;100.00;96975.91;5029324;28;104851;-62
2022/05/26 09:49:59;;;;;;;1.57;0.60;;;;;;;20.66;90.03;96983.00;5029029;28;104405;-62
2022/05/26 09:52:30;;;;;;;1.30;0.70;;;;;;;20.89;83.43;96990.13;5030799;27;101973;-62
2022/05/26 09:55:24;;;;;;;0.77;0.77;;;;;;;20.83;88.27;96985.91;5030875;27;102396;-62
2022/05/26 09:58:04;;;;;;;0.77;0.77;;;;;;;20.50;83.45;96984.38;5015197;28;105342;-62
2022/05/26 10:00:37;;;;;;;1.27;0.80;;;;;;;20.43;80.64;96997.50;5062899;27;104991;-62
2022/05/26 10:03:10;;;;;;;2.13;0.90;;;;;;;20.33;79.13;96994.97;5031992;28;105449;-62
2022/05/26 10:05:45;;;;;;;3.03;0.87;;;;;;;20.14;84.44;97007.69;5025650;28;102080;-62
2022/05/26 10:08:19;;;;;;;2.43;1.67;;;;;;;20.52;83.88;96995.69;5029165;28;103634;-62
2022/05/26 10:10:54;;;;;;;1.80;0.60;;;;;;;20.47;87.08;96999.28;5028723;28;105537;-60
2022/05/26 10:13:37;;;;;;;0.50;0.50;;;;;;;20.44;87.93;96997.16;5029070;28;101823;-62
2022/05/26 10:16:12;;;;;;;0.67;0.67;;;;;;;20.57;89.30;96990.19;5029412;28;103580;-62
2022/05/26 10:19:02;;;;;;;0.90;0.70;;;;;;;21.01;86.10;96990.41;5028566;28;105525;-62
2022/05/26 10:21:51;;;;;;;0.50;0.50;;;;;;;21.34;89.46;96984.56;5029184;28;101946;-62
2022/05/26 10:24:34;;;;;;;1.57;0.77;;;;;;;21.64;81.16;96999.34;5029110;28;106507;-62
2022/05/26 10:27:12;;;;;;;0.87;0.60;;;;;;;21.85;73.26;97000.50;5033167;28;102766;-62
2022/05/26 10:29:57;;;;;;;1.23;0.60;;;;;;;21.96;80.36;97002.66;5028945;28;103620;-62
2022/05/26 10:32:36;;;;;;;1.03;0.70;;;;;;;21.90;79.20;96998.47;5028223;28;105722;-62
2022/05/26 10:35:19;;;;;;;1.03;0.63;;;;;;;22.45;68.67;96990.91;5028908;28;101864;-62
2022/05/26 10:38:07;;;;;;;1.80;0.67;;;;;;;22.23;62.53;96993.59;5028850;28;105344;-62
2022/05/26 10:40:43;;;;;;;0.60;0.43;;;;;;;22.17;58.83;96984.78;5028275;28;105307;-62
2022/05/26 10:43:16;;;;;;;1.77;0.70;;;;;;;22.12;64.09;96992.25;5028774;28;101798;-62
2022/05/26 10:45:48;;;;;;;2.00;0.70;;;;;;;21.21;74.31;96987.31;5028711;28;104892;-62
2022/05/26 10:48:22;;;;;;;1.30;0.80;;;;;;;21.21;70.40;96985.38;5031558;28;103552;-62
2022/05/26 10:50:55;;;;;;;2.17;0.83;;;;;;;21.41;70.92;96976.84;5028098;28;104891;-62
2022/05/26 10:53:31;;;;;;;0.57;0.50;;;;;;;22.05;61.34;96989.97;5028220;28;104084;-62
2022/05/26 10:56:06;;;;;;;1.93;0.60;;;;;;;22.05;60.73;96981.84;5028520;28;101993;-62
2022/05/26 10:58:39;;;;;;;0.67;0.60;;;;;;;22.31;56.76;96982.00;5030356;28;102401;-62
2022/05/26 11:01:15;;;;;;;2.07;0.60;;;;;;;22.13;59.30;96972.19;5027338;28;105511;-62
2022/05/26 11:03:46;;;;;;;0.40;0.40;;;;;;;22.50;61.69;96974.50;5030316;27;101686;-62
2022/05/26 11:06:26;;;;;;;0.40;0.40;;;;;;;22.37;57.95;96969.91;5029897;28;102573;-62
2022/05/26 11:08:58;;;;;;;1.83;0.70;;;;;;;22.61;62.85;96968.47;5029505;28;103190;-62
2022/05/26 11:11:39;;;;;;;0.60;0.60;;;;;;;22.37;57.03;96964.50;5033418;27;101734;-62
2022/05/26 11:14:10;;;;;;;0.97;0.60;;;;;;;22.01;61.94;96967.31;5027822;28;105282;-62
2022/05/26 11:19:35;;;;;;;2.37;0.70;;;;;;;22.66;66.29;96967.56;5028247;28;105917;-62
2022/05/26 11:22:04;;;;;;;0.93;0.67;;;;;;;22.37;60.64;96970.72;5027708;28;105576;-62
2022/05/26 11:24:32;;;;;;;0.77;0.50;;;;;;;21.94;57.18;96976.97;5029731;28;101815;-62
2022/05/26 11:27:06;;;;;;;2.27;0.87;;;;;;;22.02;55.88;96973.53;5028356;28;103476;-62
2022/05/26 11:29:38;;;;;;;2.23;0.67;;;;;;;21.85;59.54;96971.50;5029358;28;102543;-62
2022/05/26 11:38:03;;;;;;;2.33;1.27;;;;;;;21.45;82.00;96968.91;5029813;27;101875;-62
2022/05/26 11:40:37;;;;;;;3.50;0.70;;;;;;;21.14;88.71;96978.81;5029803;28;102930;-62
2022/05/26 11:43:07;;;;;;;10.43;0.90;;;;;;;21.25;88.96;96974.78;5028737;27;102466;-62
2022/05/26 11:45:38;;;;;;;1.30;0.70;;;;;;;21.37;82.78;96970.41;5029400;27;102018;-62
2022/05/26 11:48:27;;;;;;;0.77;0.70;;;;;;;21.50;85.04;96966.91;5029675;28;102403;-62
2022/05/26 11:50:58;;;;;;;2.67;0.80;;;;;;;21.59;89.51;96970.47;5026964;28;105272;-62
2022/05/26 11:53:38;;;;;;;2.63;0.93;;;;;;;21.57;82.60;96971.91;5028154;28;101914;-62
2022/05/26 11:56:53;;;;;;;10.03;7.83;;;;;;;21.92;79.74;96969.19;5027836;28;105561;-62
2022/05/26 11:59:43;;;;;;;20.50;15.77;;;;;;;22.16;86.49;96960.72;5030697;28;104109;-62
2022/05/26 12:02:30;;;;;;;0.80;0.70;;;;;;;21.73;79.48;96959.59;5029251;27;102791;-62
2022/05/26 12:05:37;;;;;;;2.07;0.97;;;;;;;22.10;75.24;96959.25;5032051;28;102593;-62
2022/05/26 12:08:07;;;;;;;1.37;0.67;;;;;;;22.44;70.53;96959.44;5031116;28;101906;-62
2022/05/26 12:10:41;;;;;;;1.27;0.70;;;;;;;23.65;68.81;96949.44;5030954;28;105248;-62
2022/05/26 12:13:23;;;;;;;1.13;0.80;;;;;;;23.02;60.29;96960.81;5032194;28;102871;-62
2022/05/26 12:16:22;;;;;;;3.50;0.90;;;;;;;22.92;62.00;96949.44;5032746;27;101949;-62
2022/05/26 12:18:52;;;;;;;0.80;0.80;;;;;;;23.66;58.94;96945.59;5014250;28;106555;-62